Latest Weather Observations for Larapuna (Eddystone Point)

IDT60801

Issued at 7:03 pm EDT Thursday 29 January 2015 (issued every 30 minutes, with the page automatically refreshed every 10 minutes)

About weather observations | Map of weather stations | Latest weather observations for TAS | Other Formats
Station Details ID: 092045 Name: LARAPUNA (EDDYSTONE POINT) Lat: -40.99 Lon: 148.35 Height: 19.7 m
Data from the previous 72 hours. | See also: Recent months at Larapuna (Eddystone Point)
Date/Time
EDT
Temp
°C
App
Temp
°C
Dew
Point
Rel
Hum
%
Delta-T
°C
Wind Press
QNH
hPa
Press
MSL
hPa
Rain
since 9 am
mm
Dir
 
Spd
km/h
Gust
km/h
Spd
kts
Gust
kts
29/07:00pm 15.2 4.1 8.7 65 3.3 S 57 74 31 40 1018.6 1018.6 -
29/06:30pm 15.6 4.4 9.7 68 3.1 S 59 70 32 38 1018.5 1018.5 -
29/06:00pm 15.9 4.8 10.2 69 3.0 S 59 70 32 38 1018.7 1018.7 -
29/05:30pm 16.5 5.5 10.4 67 3.2 S 59 69 32 37 1018.9 1018.9 -
29/05:00pm 17.1 5.8 10.7 66 3.4 S 61 72 33 39 1019.1 1019.1 -
29/04:32pm 16.7 6.1 10.5 67 3.3 S 57 76 31 41 1019.3 1019.3 -
29/04:30pm 16.4 5.9 11.1 71 2.8 S 57 72 31 39 1019.4 1019.4 -
29/04:00pm 16.5 5.1 10.6 68 3.1 S 61 74 33 40 1019.7 1019.7 -
29/03:30pm 16.0 5.7 11.0 72 2.7 SSE 56 69 30 37 1020.2 1020.2 -
29/03:00pm 16.7 5.6 11.4 71 2.9 S 61 72 33 39 1020.0 1020.0 -
29/02:30pm 16.7 6.4 11.8 73 2.7 S 57 69 31 37 1020.1 1020.1 -
29/02:10pm 14.4 6.3 11.9 85 1.3 SSE 46 69 25 37 1020.3 1020.3 -
29/02:00pm 13.8 4.9 12.0 89 1.0 SSE 50 61 27 33 1020.6 1020.6 -
29/01:30pm 15.6 5.8 11.4 76 2.3 SSE 54 70 29 38 1020.3 1020.3 -
29/01:00pm 15.0 6.0 11.6 80 1.8 SSE 50 63 27 34 1020.7 1020.7 -
29/12:30pm 14.7 4.4 11.8 83 1.6 S 57 70 31 38 1020.6 1020.6 -
29/12:00pm 14.4 4.4 11.9 85 1.3 S 56 67 30 36 1020.6 1020.6 -
29/11:30am 13.9 5.2 12.5 91 0.8 S 50 63 27 34 1020.7 1020.7 56.4
29/11:21am 13.7 6.3 12.4 92 0.7 SSE 43 61 23 33 1021.0 1021.0 56.4
29/11:10am 13.7 6.2 12.1 90 0.9 S 43 54 23 29 1021.2 1021.2 55.8
29/11:00am 15.1 7.6 13.8 92 0.7 SSW 46 56 25 30 1020.9 1020.9 55.4
29/10:30am 13.3 3.2 11.7 90 0.9 S 56 65 30 35 1020.8 1020.8 55.0
29/10:00am 14.0 3.9 12.4 90 0.9 S 57 72 31 39 1020.8 1020.8 55.0
29/09:00am 13.9 3.2 13.9 100 0.0 S 63 78 34 42 1020.7 1020.7 3.4
29/08:48am 13.7 - - - - S 61 80 33 43 1020.5 1020.5 3.4
29/08:30am 14.8 - - - - S 61 76 33 41 1020.5 1020.5 3.2
29/08:00am 14.3 - - - - S 63 76 34 41 1020.3 1020.3 3.2
29/07:30am 14.4 - - - - S 65 80 35 43 1020.1 1020.1 3.2
29/07:00am 13.9 - - - - S 65 78 35 42 1019.7 1019.7 3.2
29/06:30am 13.9 - - - - S 59 72 32 39 1019.8 1019.8 3.0
29/06:00am 13.4 - - - - SSE 61 76 33 41 1019.6 1019.6 3.0
29/05:30am 13.4 - - - - S 61 78 33 42 1019.6 1019.6 3.0
29/05:00am 13.4 - - - - S 57 69 31 37 1019.6 1019.6 3.0
29/04:30am 13.0 - - - - S 57 70 31 38 1019.7 1019.7 3.0
29/04:00am 12.8 - - - - S 54 67 29 36 1019.4 1019.4 2.0
29/03:30am 13.5 - - - - S 52 65 28 35 1020.0 1020.0 0.8
29/03:00am 13.5 - - - - S 56 70 30 38 1020.1 1020.1 0.4
29/02:30am 13.4 - - - - S 57 70 31 38 1020.2 1020.2 0.4
29/02:00am 13.3 - - - - S 59 72 32 39 1020.6 1020.6 0.2
29/01:30am 13.9 - - - - S 56 72 30 39 1020.8 1020.8 0.0
29/01:28am 14.2 - - - - S 54 72 29 39 1020.7 1020.7 0.0
29/01:00am 14.5 - - - - S 57 67 31 36 1020.8 1020.8 0.0
29/12:30am 14.3 - - - - S 56 72 30 39 1021.2 1021.2 0.0
29/12:00am 14.3 - - - - S 54 67 29 36 1021.3 1021.3 0.0
 
Date/Time
EDT
Temp
°C
App
Temp
°C
Dew
Point
Rel
Hum
%
Delta-T
°C
Wind Press
QNH
hPa
Press
MSL
hPa
Rain
since 9 am
mm
Dir
 
Spd
km/h
Gust
km/h
Spd
kts
Gust
kts
28/11:30pm 14.2 - - - - S 54 65 29 35 1021.5 1021.5 0.0
28/11:00pm 14.6 - - - - S 57 69 31 37 1021.6 1021.6 0.0
28/10:30pm 14.6 - - - - S 59 70 32 38 1021.8 1021.8 0.0
28/10:00pm 14.5 - - - - S 54 69 29 37 1022.0 1022.0 0.0
28/09:30pm 14.7 - - - - S 57 69 31 37 1022.1 1022.1 0.0
28/09:00pm 14.8 - - - - S 56 65 30 35 1022.0 1022.0 0.0
28/08:30pm 14.6 - - - - S 56 67 30 36 1021.7 1021.7 0.0
28/08:00pm 14.6 - - - - S 56 69 30 37 1021.7 1021.7 0.0
28/07:30pm 14.5 - - - - SSE 57 70 31 38 1021.7 1021.7 0.0
28/07:00pm 15.5 - - - - S 56 67 30 36 1021.5 1021.5 0.0
28/06:30pm 15.7 - - - - S 54 65 29 35 1021.4 1021.4 0.0
28/06:00pm 16.1 - - - - S 54 65 29 35 1021.3 1021.3 0.0
28/05:30pm 16.5 - - - - SSE 54 65 29 35 1021.3 1021.3 0.0
28/05:00pm 16.7 - - - - SSE 57 70 31 38 1021.3 1021.3 0.0
28/04:30pm 16.6 - - - - S 57 69 31 37 1021.2 1021.2 0.0
28/04:00pm 16.9 - - - - SSE 54 65 29 35 1021.3 1021.3 0.0
28/03:30pm 17.2 - - - - SSE 56 69 30 37 1021.3 1021.3 0.0
28/03:00pm 17.5 - - - - SSE 52 61 28 33 1021.6 1021.6 0.0
28/02:30pm 17.8 - - - - S 50 61 27 33 1021.7 1021.7 0.0
28/02:00pm 17.8 - - - - S 54 65 29 35 1021.7 1021.7 0.0
28/01:30pm 17.2 - - - - SSE 52 61 28 33 1021.8 1021.8 0.0
28/01:00pm 17.7 - - - - SSE 48 57 26 31 1021.8 1021.8 0.0
28/12:30pm 16.6 - - - - S 48 59 26 32 1021.9 1021.9 0.0
28/12:00pm 15.6 - - - - S 52 63 28 34 1021.8 1021.8 0.0
28/11:30am 16.4 - - - - S 52 61 28 33 1022.0 1022.0 0.0
28/11:00am 17.2 - - - - S 46 57 25 31 1021.9 1021.9 0.0
28/10:30am 16.6 - - - - S 46 54 25 29 1021.9 1021.9 0.0
28/10:00am 16.6 - - - - S 46 56 25 30 1021.8 1021.8 0.0
28/09:30am 16.0 - - - - S 52 61 28 33 1021.4 1021.4 0.0
28/09:00am 15.5 - - - - S 48 57 26 31 1021.4 1021.4 4.2
28/08:30am 14.5 - - - - S 44 52 24 28 1021.2 1021.2 4.2
28/08:00am 14.7 - - - - S 41 48 22 26 1020.9 1020.9 4.2
28/07:30am 14.2 - - - - S 46 54 25 29 1020.6 1020.6 4.2
28/07:00am 14.1 - - - - S 46 57 25 31 1020.2 1020.2 4.2
28/06:30am 13.5 - - - - S 41 48 22 26 1020.0 1020.0 4.2
28/06:00am 13.5 - - - - S 44 52 24 28 1019.7 1019.7 4.2
28/05:30am 13.7 - - - - S 46 57 25 31 1019.3 1019.3 4.2
28/05:00am 13.9 - - - - S 46 56 25 30 1019.1 1019.1 4.2
28/04:30am 14.1 - - - - S 48 56 26 30 1019.2 1019.2 4.2
28/04:00am 14.1 - - - - S 46 52 25 28 1019.2 1019.2 4.2
28/03:30am 13.9 - - - - S 48 54 26 29 1019.4 1019.4 4.2
28/03:00am 13.8 - - - - S 50 59 27 32 1019.5 1019.5 4.2
28/02:30am 15.0 - - - - S 44 52 24 28 1019.5 1019.5 4.2
28/02:00am 14.8 - - - - S 48 59 26 32 1019.5 1019.5 4.2
28/01:53am 15.3 - - - - S 41 54 22 29 1019.6 1019.6 4.2
28/01:30am 15.0 - - - - SSE 33 43 18 23 1019.8 1019.8 4.2
28/01:00am 15.0 - - - - SSE 39 46 21 25 1019.7 1019.7 4.2
28/12:30am 14.9 - - - - SSE 41 48 22 26 1019.6 1019.6 4.2
28/12:00am 14.9 - - - - SSE 41 50 22 27 1019.7 1019.7 4.2
 
Date/Time
EDT
Temp
°C
App
Temp
°C
Dew
Point
Rel
Hum
%
Delta-T
°C
Wind Press
QNH
hPa
Press
MSL
hPa
Rain
since 9 am
mm
Dir
 
Spd
km/h
Gust
km/h
Spd
kts
Gust
kts
27/11:30pm 14.9 - - - - SSE 41 50 22 27 1019.5 1019.5 4.2
27/11:00pm 14.7 - - - - SSE 41 50 22 27 1019.5 1019.5 4.2
27/10:30pm 14.9 - - - - SSE 44 52 24 28 1019.5 1019.5 4.2
27/10:00pm 15.0 - - - - SSE 43 52 23 28 1019.3 1019.3 4.2
27/09:30pm 14.8 - - - - SSE 41 50 22 27 1018.9 1018.9 4.2
27/09:00pm 14.8 - - - - SSE 39 46 21 25 1018.6 1018.6 4.2
27/08:30pm 14.6 - - - - SSE 37 46 20 25 1018.3 1018.3 4.2
27/08:00pm 15.3 - - - - SSE 32 37 17 20 1018.1 1018.1 0.0
27/07:30pm 15.9 - - - - S 37 44 20 24 1017.8 1017.8 0.0
27/07:13pm 17.0 - - - - S 22 41 12 22 1017.6 1017.6 0.0
27/07:00pm 17.3 - - - - S 15 20 8 11 1017.6 1017.6 0.0
27/06:30pm 17.4 - - - - SE 9 11 5 6 1017.2 1017.2 0.0
27/06:00pm 17.5 - - - - ENE 9 13 5 7 1016.9 1016.9 0.0
27/05:30pm 17.9 - - - - NE 13 17 7 9 1016.5 1016.5 0.0
27/05:00pm 18.4 - - - - NNE 11 13 6 7 1016.5 1016.5 0.0
27/04:30pm 19.1 - - - - N 17 20 9 11 1016.5 1016.5 0.0
27/04:00pm 19.0 - - - - NNE 20 26 11 14 1016.4 1016.4 0.0
27/03:30pm 18.5 - - - - NNE 22 28 12 15 1016.5 1016.5 0.0
27/03:00pm 18.3 - - - - NNE 24 28 13 15 1016.4 1016.4 0.0
27/02:30pm 18.7 - - - - NNE 24 28 13 15 1016.4 1016.4 0.0
27/02:00pm 18.7 - - - - NNE 24 30 13 16 1016.5 1016.5 0.0
27/01:30pm 18.4 - - - - NE 26 30 14 16 1016.7 1016.7 0.0
27/01:00pm 18.5 - - - - NNE 24 28 13 15 1016.9 1016.9 0.0
27/12:30pm 18.1 - - - - NNE 24 28 13 15 1016.8 1016.8 0.0
27/12:00pm 18.3 - - - - NNE 22 26 12 14 1016.9 1016.9 0.0
27/11:30am 18.5 - - - - NNE 22 24 12 13 1016.8 1016.8 0.0
27/11:00am 18.3 - - - - NNE 20 24 11 13 1016.9 1016.9 0.0
27/10:30am 18.0 - - - - NNE 20 24 11 13 1016.8 1016.8 0.0
27/10:00am 18.2 - - - - N 17 20 9 11 1017.2 1017.2 0.0
27/09:30am 17.6 - - - - N 17 20 9 11 1017.3 1017.3 0.0
27/09:00am 17.4 - - - - N 11 13 6 7 1017.1 1017.1 0.0
27/08:30am 16.5 - - - - N 11 13 6 7 1017.0 1017.0 0.0
27/08:00am 15.4 - - - - NNW 9 13 5 7 1016.6 1016.6 0.0
27/07:30am 14.3 - - - - NW 9 13 5 7 1016.5 1016.5 0.0
27/07:00am 13.0 - - - - WNW 15 15 8 8 1016.4 1016.4 0.0
27/06:30am 11.7 - - - - WNW 15 17 8 9 1016.4 1016.4 0.0
27/06:00am 11.9 - - - - WNW 13 15 7 8 1016.2 1016.2 0.0
27/05:30am 12.1 - - - - NW 13 15 7 8 1016.2 1016.2 0.0
27/05:00am 12.6 - - - - NW 11 13 6 7 1015.9 1015.9 0.0
27/04:30am 12.9 - - - - NW 13 13 7 7 1015.9 1015.9 0.0
27/04:00am 13.1 - - - - NNW 11 13 6 7 1016.1 1016.1 0.0
27/03:30am 13.1 - - - - NW 11 15 6 8 1016.3 1016.3 0.0
27/03:00am 13.1 - - - - NW 11 13 6 7 1016.6 1016.6 0.0
27/02:30am 13.6 - - - - NW 11 13 6 7 1016.8 1016.8 0.0
27/02:00am 13.3 - - - - NW 11 13 6 7 1016.9 1016.9 0.0
27/01:30am 14.1 - - - - NW 9 9 5 5 1017.0 1017.0 0.0
27/01:00am 14.4 - - - - NW 9 11 5 6 1017.1 1017.1 0.0
27/12:30am 15.9 - - - - N 13 17 7 9 1017.3 1017.3 0.0
27/12:00am 16.0 - - - - NNE 17 19 9 10 1017.2 1017.2 0.0
 
Date/Time
EDT
Temp
°C
App
Temp
°C
Dew
Point
Rel
Hum
%
Delta-T
°C
Wind Press
QNH
hPa
Press
MSL
hPa
Rain
since 9 am
mm
Dir
 
Spd
km/h
Gust
km/h
Spd
kts
Gust
kts
26/11:30pm 16.0 - - - - N 17 20 9 11 1017.1 1017.1 0.0
26/11:00pm 16.0 - - - - N 17 20 9 11 1017.2 1017.2 0.0
26/10:30pm 16.0 - - - - N 15 19 8 10 1017.2 1017.2 0.0
26/10:00pm 16.2 - - - - N 19 22 10 12 1017.1 1017.1 0.0
26/09:30pm 16.2 - - - - N 20 24 11 13 1016.8 1016.8 0.0
26/09:00pm 16.3 - - - - N 20 26 11 14 1016.4 1016.4 0.0
26/08:30pm 16.3 - - - - N 19 22 10 12 1016.2 1016.2 0.0
26/08:00pm 16.5 - - - - N 20 24 11 13 1015.7 1015.7 0.0
26/07:30pm 16.5 - - - - N 17 20 9 11 1015.4 1015.4 0.0

Other Formats:

Comma delimited format used in spreadsheet applications
http://www.bom.gov.au/fwo/IDT60801/IDT60801.94983.axf

JavaScript Object Notation format (JSON) in row-major order
http://www.bom.gov.au/fwo/IDT60801/IDT60801.94983.json